Time;durP1;ratioP1;P1;durP2;ratioP2;P2;SDS_P1;SDS_P2;PMS_P1;PMS_P2;Temp;Humidity;BMP_temperature;BMP_pressure;BME280_temperature;BME280_humidity;BME280_pressure;Samples;Min_cycle;Max_cycle;Signal;HPM_P1;HPM_P2
2022/10/18 00:00:33;;;;;;;23.87;21.57;;;;;;;;;;4989366;28;20229;-75
2022/10/18 00:02:59;;;;;;;25.95;23.45;;;;;;;;;;4977443;28;20233;-75
2022/10/18 00:05:26;;;;;;;25.63;23.23;;;;;;;;;;4988438;28;20687;-75
2022/10/18 00:07:52;;;;;;;25.30;22.90;;;;;;;;;;5008556;28;20282;-74
2022/10/18 00:10:20;;;;;;;24.55;22.25;;;;;;;;;;4978746;28;20230;-74
2022/10/18 00:12:45;;;;;;;26.13;23.58;;;;;;;;;;4994685;28;20226;-74
2022/10/18 00:15:13;;;;;;;26.17;23.75;;;;;;;;;;4993436;28;20225;-74
2022/10/18 00:17:41;;;;;;;26.95;24.35;;;;;;;;;;4996445;28;20232;-73
2022/10/18 00:20:09;;;;;;;26.55;23.95;;;;;;;;;;4997129;28;20229;-74
2022/10/18 00:22:38;;;;;;;27.60;24.85;;;;;;;;;;4985041;28;20230;-74
2022/10/18 00:25:06;;;;;;;26.00;23.50;;;;;;;;;;4992949;28;20218;-75
2022/10/18 00:27:32;;;;;;;27.00;24.25;;;;;;;;;;4995434;28;20227;-75
2022/10/18 00:29:59;;;;;;;27.15;23.95;;;;;;;;;;4997921;28;20270;-74
2022/10/18 00:32:25;;;;;;;26.77;24.30;;;;;;;;;;5000785;28;20708;-74
2022/10/18 00:34:53;;;;;;;26.60;24.00;;;;;;;;;;4994080;28;20221;-73
2022/10/18 00:37:18;;;;;;;26.65;24.08;;;;;;;;;;4999250;28;20211;-75
2022/10/18 00:39:49;;;;;;;25.38;23.05;;;;;;;;;;4995006;28;20320;-75
2022/10/18 00:42:20;;;;;;;27.55;24.75;;;;;;;;;;4978466;28;20225;-73
2022/10/18 00:44:47;;;;;;;27.77;24.92;;;;;;;;;;4984064;28;20309;-74
2022/10/18 00:47:13;;;;;;;28.70;25.60;;;;;;;;;;4992307;28;20316;-74
2022/10/18 00:49:49;;;;;;;28.23;25.27;;;;;;;;;;4995354;28;20229;-75
2022/10/18 00:52:21;;;;;;;28.25;25.50;;;;;;;;;;4994698;28;20440;-74
2022/10/18 00:54:47;;;;;;;30.15;26.95;;;;;;;;;;4992387;28;20233;-74
2022/10/18 00:57:16;;;;;;;31.13;28.03;;;;;;;;;;4951772;28;20685;-74
2022/10/18 00:59:43;;;;;;;34.35;30.17;;;;;;;;;;4994626;28;20256;-74
2022/10/18 01:02:13;;;;;;;32.28;28.88;;;;;;;;;;4992591;28;20229;-74
2022/10/18 01:04:39;;;;;;;33.72;30.30;;;;;;;;;;4982659;28;20282;-74
2022/10/18 01:07:31;;;;;;;33.38;29.98;;;;;;;;;;4979011;28;20229;-75
2022/10/18 01:10:19;;;;;;;32.83;29.63;;;;;;;;;;4969409;28;20233;-74
2022/10/18 01:13:02;;;;;;;31.27;28.17;;;;;;;;;;4976808;28;20316;-75
2022/10/18 01:15:59;;;;;;;34.55;30.98;;;;;;;;;;4987722;28;20229;-74
2022/10/18 01:18:36;;;;;;;34.28;30.45;;;;;;;;;;4993484;28;20293;-74
2022/10/18 01:21:17;;;;;;;31.60;28.42;;;;;;;;;;4995799;28;20236;-74
2022/10/18 01:24:18;;;;;;;32.10;28.95;;;;;;;;;;4998650;28;20297;-74
2022/10/18 01:26:55;;;;;;;36.65;30.83;;;;;;;;;;4932482;28;20388;-75
2022/10/18 01:29:38;;;;;;;34.05;30.00;;;;;;;;;;4987770;28;20233;-74
2022/10/18 01:32:12;;;;;;;31.95;28.52;;;;;;;;;;4991205;28;20248;-74
2022/10/18 01:34:40;;;;;;;32.25;28.98;;;;;;;;;;4985675;28;20233;-74
2022/10/18 01:37:10;;;;;;;32.22;28.98;;;;;;;;;;4988771;28;20636;-75
2022/10/18 01:39:37;;;;;;;30.92;27.80;;;;;;;;;;4963186;28;20240;-74
2022/10/18 01:42:07;;;;;;;29.00;26.02;;;;;;;;;;4980931;28;20252;-75
2022/10/18 01:44:32;;;;;;;30.13;27.02;;;;;;;;;;4975258;28;20227;-74
2022/10/18 01:47:00;;;;;;;29.02;26.23;;;;;;;;;;4992363;28;20679;-74
2022/10/18 01:49:30;;;;;;;28.88;25.83;;;;;;;;;;4989655;28;20221;-74
2022/10/18 01:51:58;;;;;;;27.73;25.13;;;;;;;;;;4991843;28;20268;-74
2022/10/18 01:54:28;;;;;;;28.75;25.85;;;;;;;;;;4986478;28;20214;-73
2022/10/18 01:57:06;;;;;;;27.73;24.92;;;;;;;;;;4995566;28;20218;-75
2022/10/18 01:59:34;;;;;;;28.92;26.25;;;;;;;;;;4995995;28;20654;-74
2022/10/18 02:02:15;;;;;;;27.48;24.90;;;;;;;;;;4991326;28;20238;-74
2022/10/18 02:05:10;;;;;;;28.30;25.60;;;;;;;;;;5009829;28;20229;-75
2022/10/18 02:07:38;;;;;;;32.42;27.95;;;;;;;;;;4981207;28;20226;-74
2022/10/18 02:10:24;;;;;;;30.27;27.33;;;;;;;;;;4987616;28;20707;-74
2022/10/18 02:12:50;;;;;;;31.60;28.50;;;;;;;;;;4987327;28;20232;-74
2022/10/18 02:15:17;;;;;;;29.90;26.92;;;;;;;;;;4996425;28;20226;-74
2022/10/18 02:17:43;;;;;;;29.52;26.33;;;;;;;;;;4977224;28;20585;-74
2022/10/18 02:20:08;;;;;;;30.13;27.20;;;;;;;;;;4972975;28;20228;-74
2022/10/18 02:22:36;;;;;;;29.58;26.67;;;;;;;;;;4971546;28;20218;-74
2022/10/18 02:25:09;;;;;;;29.20;26.17;;;;;;;;;;4975723;28;20224;-74
2022/10/18 02:27:38;;;;;;;29.80;26.70;;;;;;;;;;4979581;28;20224;-74
2022/10/18 02:30:04;;;;;;;29.35;26.42;;;;;;;;;;4980240;28;151283;-75
2022/10/18 02:32:30;;;;;;;30.02;27.17;;;;;;;;;;4997023;28;20689;-75
2022/10/18 02:35:04;;;;;;;31.20;27.38;;;;;;;;;;5003933;28;20239;-74
2022/10/18 02:37:36;;;;;;;29.75;26.67;;;;;;;;;;5005992;28;20221;-74
2022/10/18 02:40:08;;;;;;;28.77;25.63;;;;;;;;;;4993270;28;20228;-74
2022/10/18 02:42:38;;;;;;;27.67;24.73;;;;;;;;;;4984783;28;20221;-74
2022/10/18 02:45:06;;;;;;;26.52;23.65;;;;;;;;;;5012315;28;20233;-74
2022/10/18 02:47:31;;;;;;;28.55;25.58;;;;;;;;;;4991685;28;20364;-74
2022/10/18 02:49:57;;;;;;;31.20;26.75;;;;;;;;;;4988142;28;20596;-74
2022/10/18 02:52:24;;;;;;;28.13;25.13;;;;;;;;;;4974655;28;20221;-74
2022/10/18 02:54:50;;;;;;;26.90;24.03;;;;;;;;;;4977828;28;20743;-75
2022/10/18 02:57:18;;;;;;;29.88;25.70;;;;;;;;;;4979718;28;20225;-74
2022/10/18 02:59:44;;;;;;;26.73;23.87;;;;;;;;;;4998912;28;20240;-74
2022/10/18 03:02:14;;;;;;;27.97;25.17;;;;;;;;;;4994971;28;20229;-74
2022/10/18 03:04:42;;;;;;;28.77;25.67;;;;;;;;;;5001103;28;20221;-74
2022/10/18 03:07:09;;;;;;;24.23;21.92;;;;;;;;;;4970264;28;20651;-75
2022/10/18 03:09:37;;;;;;;24.33;21.92;;;;;;;;;;4980722;28;20228;-74
2022/10/18 03:12:05;;;;;;;24.17;21.33;;;;;;;;;;4990414;28;20259;-73
2022/10/18 03:14:31;;;;;;;26.90;23.70;;;;;;;;;;5005058;28;20232;-75
2022/10/18 03:17:00;;;;;;;25.75;23.15;;;;;;;;;;4993293;28;20234;-75
2022/10/18 03:19:26;;;;;;;27.10;23.33;;;;;;;;;;4996369;28;20704;-75
2022/10/18 03:21:51;;;;;;;30.70;27.40;;;;;;;;;;4992433;28;20227;-74
2022/10/18 03:24:17;;;;;;;34.77;27.53;;;;;;;;;;4994520;28;20238;-75
2022/10/18 03:26:44;;;;;;;30.38;27.30;;;;;;;;;;4995156;28;20222;-75
2022/10/18 03:29:10;;;;;;;29.20;26.17;;;;;;;;;;4994511;28;20241;-74
2022/10/18 03:31:35;;;;;;;32.42;28.88;;;;;;;;;;5007886;28;20703;-76
2022/10/18 03:34:03;;;;;;;33.67;28.83;;;;;;;;;;4985766;28;20275;-75
2022/10/18 03:36:33;;;;;;;34.60;29.95;;;;;;;;;;4960264;28;20311;-75
2022/10/18 03:39:00;;;;;;;34.33;26.60;;;;;;;;;;4985521;28;20230;-75
2022/10/18 03:41:25;;;;;;;32.33;28.02;;;;;;;;;;4998304;28;20221;-74
2022/10/18 03:43:51;;;;;;;29.92;26.80;;;;;;;;;;4997758;28;20231;-74
2022/10/18 03:46:18;;;;;;;34.90;31.13;;;;;;;;;;4976252;28;20226;-75
2022/10/18 03:48:43;;;;;;;40.90;33.78;;;;;;;;;;4988659;28;20253;-73
2022/10/18 03:51:09;;;;;;;41.67;34.15;;;;;;;;;;4998251;28;20285;-73
2022/10/18 03:53:37;;;;;;;41.80;34.90;;;;;;;;;;4999778;28;20231;-75
2022/10/18 03:56:02;;;;;;;42.35;34.05;;;;;;;;;;4993717;28;20285;-74
2022/10/18 03:58:28;;;;;;;40.37;33.87;;;;;;;;;;4992255;28;20237;-74
2022/10/18 04:00:55;;;;;;;36.80;32.10;;;;;;;;;;4993230;28;20226;-73
2022/10/18 04:03:23;;;;;;;35.53;30.30;;;;;;;;;;4984963;28;20650;-74
2022/10/18 04:05:49;;;;;;;40.75;33.90;;;;;;;;;;4987753;28;20229;-74
2022/10/18 04:08:17;;;;;;;43.33;34.90;;;;;;;;;;5000594;28;20232;-73
2022/10/18 04:10:45;;;;;;;41.40;34.22;;;;;;;;;;4998975;28;20233;-75
2022/10/18 04:13:12;;;;;;;42.30;34.90;;;;;;;;;;4980288;28;20316;-74
2022/10/18 04:15:43;;;;;;;47.10;36.53;;;;;;;;;;4985754;28;20217;-75
2022/10/18 04:18:10;;;;;;;49.03;36.55;;;;;;;;;;4983480;28;20237;-75
2022/10/18 04:20:36;;;;;;;46.55;37.28;;;;;;;;;;4978354;28;20240;-75
2022/10/18 04:23:03;;;;;;;49.90;36.73;;;;;;;;;;4994336;28;20221;-74
2022/10/18 04:25:33;;;;;;;47.53;37.60;;;;;;;;;;4978210;28;20220;-74
2022/10/18 04:27:59;;;;;;;54.97;38.17;;;;;;;;;;4992959;28;20263;-75
2022/10/18 04:30:27;;;;;;;52.67;39.83;;;;;;;;;;4957431;28;20222;-74
2022/10/18 04:32:53;;;;;;;56.10;39.43;;;;;;;;;;4981824;28;20225;-74
2022/10/18 04:35:23;;;;;;;51.83;38.42;;;;;;;;;;4998429;28;20703;-74
2022/10/18 04:37:49;;;;;;;53.13;39.95;;;;;;;;;;4992176;28;20206;-74
2022/10/18 04:40:16;;;;;;;50.37;38.57;;;;;;;;;;4994057;28;20746;-75
2022/10/18 04:42:42;;;;;;;53.25;38.83;;;;;;;;;;4990875;28;20229;-75
2022/10/18 04:45:10;;;;;;;50.00;38.73;;;;;;;;;;4979385;28;20294;-74
2022/10/18 04:47:35;;;;;;;50.20;37.97;;;;;;;;;;4961987;28;20224;-75
2022/10/18 04:50:01;;;;;;;49.58;37.45;;;;;;;;;;4994151;28;20237;-74
2022/10/18 04:52:26;;;;;;;54.63;39.23;;;;;;;;;;5012057;28;20696;-75
2022/10/18 04:54:54;;;;;;;57.13;39.58;;;;;;;;;;4990255;28;20251;-75
2022/10/18 04:57:20;;;;;;;52.47;39.07;;;;;;;;;;4995067;28;20230;-74
2022/10/18 04:59:45;;;;;;;53.50;40.92;;;;;;;;;;4987678;28;20256;-75
2022/10/18 05:02:13;;;;;;;53.60;38.47;;;;;;;;;;5009715;28;20233;-75
2022/10/18 05:04:38;;;;;;;54.50;39.23;;;;;;;;;;4989623;28;20220;-75
2022/10/18 05:07:06;;;;;;;52.40;37.27;;;;;;;;;;4998960;28;20249;-75
2022/10/18 05:09:34;;;;;;;52.37;38.53;;;;;;;;;;4977229;28;20928;-74
2022/10/18 05:11:59;;;;;;;50.63;36.87;;;;;;;;;;4988900;28;20725;-75
2022/10/18 05:14:25;;;;;;;49.03;35.13;;;;;;;;;;4965834;28;20217;-75
2022/10/18 05:16:53;;;;;;;48.30;36.03;;;;;;;;;;4974991;28;20245;-74
2022/10/18 05:19:18;;;;;;;54.90;39.53;;;;;;;;;;4990965;28;20247;-73
2022/10/18 05:21:46;;;;;;;54.05;39.00;;;;;;;;;;4990613;28;20304;-75
2022/10/18 05:24:11;;;;;;;52.53;39.23;;;;;;;;;;4981297;28;20866;-74
2022/10/18 05:26:37;;;;;;;54.47;39.30;;;;;;;;;;4983781;28;20222;-74
2022/10/18 05:29:04;;;;;;;55.33;39.20;;;;;;;;;;4979087;28;20289;-74
2022/10/18 05:31:32;;;;;;;51.20;38.50;;;;;;;;;;4975312;28;20228;-74
2022/10/18 05:34:00;;;;;;;52.53;37.93;;;;;;;;;;5007223;28;20226;-74
2022/10/18 05:36:28;;;;;;;53.70;37.80;;;;;;;;;;5008290;28;20226;-74
2022/10/18 05:38:54;;;;;;;55.47;39.57;;;;;;;;;;4971362;28;20221;-73
2022/10/18 05:41:20;;;;;;;52.53;38.17;;;;;;;;;;4987761;28;20227;-73
2022/10/18 05:43:45;;;;;;;53.88;39.33;;;;;;;;;;4991433;28;20236;-74
2022/10/18 05:46:13;;;;;;;45.75;35.97;;;;;;;;;;4996885;28;20230;-74
2022/10/18 05:48:38;;;;;;;43.63;35.07;;;;;;;;;;4973380;28;20217;-73
2022/10/18 05:51:04;;;;;;;49.70;35.70;;;;;;;;;;4975425;28;20227;-75
2022/10/18 05:53:31;;;;;;;44.47;34.35;;;;;;;;;;4988055;28;20305;-74
2022/10/18 05:56:02;;;;;;;45.20;34.75;;;;;;;;;;4983989;28;20225;-73
2022/10/18 05:58:28;;;;;;;52.20;37.15;;;;;;;;;;4973868;28;20234;-74
2022/10/18 06:00:59;;;;;;;43.22;35.10;;;;;;;;;;4996482;28;20659;-74
2022/10/18 06:03:29;;;;;;;60.88;38.38;;;;;;;;;;4980493;28;20212;-75
2022/10/18 06:05:59;;;;;;;60.20;37.72;;;;;;;;;;4992052;28;20240;-74
2022/10/18 06:08:24;;;;;;;52.70;37.78;;;;;;;;;;4989345;28;20241;-74
2022/10/18 06:10:50;;;;;;;56.60;36.60;;;;;;;;;;4988449;28;20648;-73
2022/10/18 06:13:15;;;;;;;52.50;35.50;;;;;;;;;;4974629;28;20229;-74
2022/10/18 06:15:45;;;;;;;55.28;37.38;;;;;;;;;;4983106;28;20378;-73
2022/10/18 06:18:11;;;;;;;50.22;35.42;;;;;;;;;;4996781;28;20232;-73
2022/10/18 06:20:36;;;;;;;54.80;36.80;;;;;;;;;;4991772;28;20222;-73
2022/10/18 06:23:04;;;;;;;47.77;34.50;;;;;;;;;;4992075;28;20714;-74
2022/10/18 06:25:32;;;;;;;55.88;36.05;;;;;;;;;;4987453;28;20719;-72
2022/10/18 06:27:57;;;;;;;49.05;33.85;;;;;;;;;;4975390;28;20236;-73
2022/10/18 06:30:23;;;;;;;50.40;35.00;;;;;;;;;;4960128;28;20226;-73
2022/10/18 06:32:51;;;;;;;59.07;35.83;;;;;;;;;;4999196;28;20308;-73
2022/10/18 06:35:21;;;;;;;55.10;34.90;;;;;;;;;;4992069;28;20227;-74
2022/10/18 06:37:46;;;;;;;54.37;36.80;;;;;;;;;;4975549;28;20225;-75
2022/10/18 06:40:12;;;;;;;60.03;38.00;;;;;;;;;;4998940;28;20218;-74
2022/10/18 06:42:41;;;;;;;60.72;37.28;;;;;;;;;;4974486;28;20254;-74
2022/10/18 06:45:07;;;;;;;59.80;36.60;;;;;;;;;;4986654;28;20328;-74
2022/10/18 06:47:32;;;;;;;57.78;36.33;;;;;;;;;;4992668;28;20586;-75
2022/10/18 06:49:58;;;;;;;54.50;35.75;;;;;;;;;;5003789;28;20236;-74
2022/10/18 06:52:26;;;;;;;52.55;35.70;;;;;;;;;;4972105;28;20615;-74
2022/10/18 06:54:52;;;;;;;55.57;35.77;;;;;;;;;;4987316;28;20298;-74
2022/10/18 06:57:22;;;;;;;56.28;35.17;;;;;;;;;;4973250;28;20249;-74
2022/10/18 06:59:48;;;;;;;51.20;34.40;;;;;;;;;;4978224;28;20252;-74
2022/10/18 07:02:16;;;;;;;49.03;33.77;;;;;;;;;;4992894;28;20299;-74
2022/10/18 07:04:41;;;;;;;50.50;34.50;;;;;;;;;;4977876;28;20752;-73
2022/10/18 07:07:07;;;;;;;49.37;34.37;;;;;;;;;;4981265;28;20312;-74
2022/10/18 07:09:32;;;;;;;47.13;35.47;;;;;;;;;;4981224;28;20674;-74
2022/10/18 07:11:57;;;;;;;47.00;34.73;;;;;;;;;;4990175;28;20236;-74
2022/10/18 07:14:25;;;;;;;47.45;34.05;;;;;;;;;;4989263;28;20222;-74
2022/10/18 07:16:51;;;;;;;52.30;34.08;;;;;;;;;;4976591;28;20231;-74
2022/10/18 07:19:16;;;;;;;48.90;33.07;;;;;;;;;;4959060;28;20237;-73
2022/10/18 07:21:44;;;;;;;50.38;33.40;;;;;;;;;;4987005;28;20244;-73
2022/10/18 07:24:11;;;;;;;45.13;32.87;;;;;;;;;;4977004;28;20229;-74
2022/10/18 07:26:37;;;;;;;47.13;35.38;;;;;;;;;;4997578;28;20296;-74
2022/10/18 07:29:07;;;;;;;48.50;34.53;;;;;;;;;;4975350;28;20928;-74
2022/10/18 07:31:35;;;;;;;53.07;34.13;;;;;;;;;;4991021;28;20330;-73
2022/10/18 07:34:05;;;;;;;48.15;33.38;;;;;;;;;;4992675;28;20301;-75
2022/10/18 07:36:33;;;;;;;45.85;33.05;;;;;;;;;;4972987;28;20225;-75
2022/10/18 07:39:00;;;;;;;46.25;32.90;;;;;;;;;;4995844;28;20232;-74
2022/10/18 07:41:27;;;;;;;47.35;32.60;;;;;;;;;;4974753;28;20304;-73
2022/10/18 07:43:53;;;;;;;46.97;31.93;;;;;;;;;;4999395;28;20307;-74
2022/10/18 07:46:19;;;;;;;40.75;31.00;;;;;;;;;;4968873;28;20223;-74
2022/10/18 07:48:45;;;;;;;41.58;31.02;;;;;;;;;;4992280;28;20225;-73
2022/10/18 07:51:10;;;;;;;42.97;30.73;;;;;;;;;;4976900;28;20344;-74
2022/10/18 07:53:38;;;;;;;39.63;31.45;;;;;;;;;;4997977;28;20228;-74
2022/10/18 07:56:14;;;;;;;40.07;30.77;;;;;;;;;;4980626;28;20692;-73
2022/10/18 07:58:43;;;;;;;42.65;30.90;;;;;;;;;;4998144;28;20266;-74
2022/10/18 08:01:09;;;;;;;47.33;30.73;;;;;;;;;;4996496;28;20287;-74
2022/10/18 08:03:38;;;;;;;34.03;29.00;;;;;;;;;;4990766;28;20236;-74
2022/10/18 08:06:06;;;;;;;35.15;28.70;;;;;;;;;;4977081;28;20316;-73
2022/10/18 08:08:34;;;;;;;35.58;29.80;;;;;;;;;;4977359;28;20718;-74
2022/10/18 08:11:14;;;;;;;39.70;30.25;;;;;;;;;;4997432;28;20771;-75
2022/10/18 08:13:44;;;;;;;29.87;25.60;;;;;;;;;;4994996;28;20874;-74
2022/10/18 08:16:15;;;;;;;33.65;27.50;;;;;;;;;;4996099;28;20269;-76
2022/10/18 08:18:42;;;;;;;30.70;26.77;;;;;;;;;;4973086;28;20241;-74
2022/10/18 08:21:09;;;;;;;37.10;27.13;;;;;;;;;;4983023;28;20229;-75
2022/10/18 08:23:35;;;;;;;31.25;25.48;;;;;;;;;;4984608;28;20244;-74
2022/10/18 08:26:02;;;;;;;32.28;26.77;;;;;;;;;;4994523;28;20300;-74
2022/10/18 08:28:27;;;;;;;29.48;25.48;;;;;;;;;;4959895;28;20216;-73
2022/10/18 08:30:55;;;;;;;28.48;24.10;;;;;;;;;;4974767;28;20232;-75
2022/10/18 08:33:21;;;;;;;28.47;25.03;;;;;;;;;;4987727;28;20221;-75
2022/10/18 08:36:06;;;;;;;28.20;24.23;;;;;;;;;;4989327;28;20280;-74
2022/10/18 08:38:35;;;;;;;25.60;22.45;;;;;;;;;;4964737;28;20233;-74
2022/10/18 08:41:30;;;;;;;26.85;22.88;;;;;;;;;;4989315;28;20221;-74
2022/10/18 08:44:16;;;;;;;27.38;23.27;;;;;;;;;;5003029;28;20252;-74
2022/10/18 08:46:46;;;;;;;27.33;22.15;;;;;;;;;;4972879;28;20243;-75
2022/10/18 08:49:41;;;;;;;27.67;21.10;;;;;;;;;;5008083;28;20340;-74
2022/10/18 08:52:29;;;;;;;23.77;19.67;;;;;;;;;;4981682;28;20218;-75
2022/10/18 08:54:57;;;;;;;31.25;20.90;;;;;;;;;;4998039;28;20278;-75
2022/10/18 08:57:26;;;;;;;28.88;20.42;;;;;;;;;;4975422;28;20236;-75
2022/10/18 08:59:51;;;;;;;23.05;19.50;;;;;;;;;;4991216;28;20292;-75
2022/10/18 09:02:39;;;;;;;25.45;20.13;;;;;;;;;;4997452;28;20217;-76
2022/10/18 09:05:13;;;;;;;28.52;20.88;;;;;;;;;;4989685;28;20293;-75
2022/10/18 09:07:53;;;;;;;24.27;19.90;;;;;;;;;;4961976;28;20241;-75
2022/10/18 09:10:37;;;;;;;22.48;18.80;;;;;;;;;;4939833;28;20291;-75
2022/10/18 09:13:06;;;;;;;21.70;18.15;;;;;;;;;;4979837;28;20218;-76
2022/10/18 09:15:57;;;;;;;24.07;18.00;;;;;;;;;;4996196;28;20220;-75
2022/10/18 09:18:41;;;;;;;21.90;18.20;;;;;;;;;;4981357;28;20263;-75
2022/10/18 09:21:22;;;;;;;20.63;17.07;;;;;;;;;;4974194;28;20236;-75
2022/10/18 09:24:20;;;;;;;23.23;16.87;;;;;;;;;;4989109;28;20582;-74
2022/10/18 09:26:49;;;;;;;22.13;17.65;;;;;;;;;;4949597;28;20222;-76
2022/10/18 09:29:56;;;;;;;23.50;18.08;;;;;;;;;;4986792;28;20300;-77
2022/10/18 09:32:43;;;;;;;20.53;16.50;;;;;;;;;;4974394;28;20223;-76
2022/10/18 09:35:11;;;;;;;25.83;17.20;;;;;;;;;;4997526;28;20292;-75
2022/10/18 09:37:38;;;;;;;24.97;17.33;;;;;;;;;;4999646;28;20239;-75
2022/10/18 09:40:24;;;;;;;25.92;17.85;;;;;;;;;;4990850;28;20237;-74
2022/10/18 09:43:05;;;;;;;27.00;19.20;;;;;;;;;;4987920;28;20598;-77
2022/10/18 09:45:36;;;;;;;24.27;18.88;;;;;;;;;;4987564;28;20226;-76
2022/10/18 09:48:08;;;;;;;25.70;18.53;;;;;;;;;;4993715;28;20225;-76
2022/10/18 09:50:37;;;;;;;20.43;18.07;;;;;;;;;;4992941;28;20631;-76
2022/10/18 09:53:11;;;;;;;24.23;17.80;;;;;;;;;;4988847;28;20217;-77
2022/10/18 09:55:57;;;;;;;26.15;19.05;;;;;;;;;;4981948;28;20224;-76
2022/10/18 09:58:23;;;;;;;27.87;18.50;;;;;;;;;;4998246;28;20248;-75
2022/10/18 10:00:52;;;;;;;22.38;18.55;;;;;;;;;;4983874;28;20221;-76
2022/10/18 10:03:17;;;;;;;23.45;19.05;;;;;;;;;;4983430;28;20362;-77
2022/10/18 10:05:43;;;;;;;23.63;19.83;;;;;;;;;;4975310;28;20238;-76
2022/10/18 10:08:11;;;;;;;24.27;18.93;;;;;;;;;;4974806;28;20338;-76
2022/10/18 10:10:43;;;;;;;24.93;19.17;;;;;;;;;;4995707;28;20267;-76
2022/10/18 10:13:23;;;;;;;24.57;17.73;;;;;;;;;;4955695;28;20240;-76
2022/10/18 10:15:55;;;;;;;20.80;15.85;;;;;;;;;;4981691;28;20213;-77
2022/10/18 10:18:27;;;;;;;16.15;13.25;;;;;;;;;;4993992;28;20213;-76
2022/10/18 10:20:54;;;;;;;13.50;11.55;;;;;;;;;;4990159;28;20241;-76
2022/10/18 10:23:23;;;;;;;14.45;10.98;;;;;;;;;;4988170;28;20695;-74
2022/10/18 10:25:57;;;;;;;12.40;9.68;;;;;;;;;;4988476;28;20225;-76
2022/10/18 10:28:26;;;;;;;11.57;8.82;;;;;;;;;;4988011;28;20236;-76
2022/10/18 10:30:52;;;;;;;10.50;8.95;;;;;;;;;;4970950;28;20266;-75
2022/10/18 10:33:37;;;;;;;10.60;8.45;;;;;;;;;;4992643;28;20212;-75
2022/10/18 10:36:21;;;;;;;11.68;8.70;;;;;;;;;;4991849;28;20301;-75
2022/10/18 10:39:01;;;;;;;14.65;8.60;;;;;;;;;;4965060;28;20225;-74
2022/10/18 10:41:29;;;;;;;9.70;8.35;;;;;;;;;;4983852;28;20247;-75
2022/10/18 10:43:55;;;;;;;8.88;7.50;;;;;;;;;;4987308;28;20301;-76
2022/10/18 10:46:22;;;;;;;9.20;7.20;;;;;;;;;;4995091;28;20312;-75
2022/10/18 10:48:54;;;;;;;9.07;7.18;;;;;;;;;;4975007;28;20247;-75
2022/10/18 10:51:28;;;;;;;9.57;6.97;;;;;;;;;;4983970;28;20687;-75
2022/10/18 10:54:16;;;;;;;6.63;5.93;;;;;;;;;;4986931;28;20300;-76
2022/10/18 10:57:02;;;;;;;9.57;6.18;;;;;;;;;;5001718;28;20256;-76
2022/10/18 10:59:37;;;;;;;8.95;6.75;;;;;;;;;;4996724;28;20257;-74
2022/10/18 11:02:17;;;;;;;9.65;6.88;;;;;;;;;;4995590;28;20217;-74
2022/10/18 11:04:44;;;;;;;7.07;5.90;;;;;;;;;;4998009;28;20229;-74
2022/10/18 11:07:34;;;;;;;8.23;5.45;;;;;;;;;;4988897;28;20245;-74
2022/10/18 11:10:13;;;;;;;6.18;4.75;;;;;;;;;;5006767;28;20225;-75
2022/10/18 11:12:41;;;;;;;8.38;5.28;;;;;;;;;;4979585;28;20251;-77
2022/10/18 11:15:10;;;;;;;7.15;4.55;;;;;;;;;;4994242;28;20672;-75
2022/10/18 11:17:38;;;;;;;4.80;4.20;;;;;;;;;;5007106;28;20233;-73
2022/10/18 11:20:08;;;;;;;7.25;4.88;;;;;;;;;;5003770;28;20241;-75
2022/10/18 11:23:04;;;;;;;5.60;3.83;;;;;;;;;;5006824;28;20700;-74
2022/10/18 11:25:40;;;;;;;5.13;3.08;;;;;;;;;;4981683;28;20271;-77
2022/10/18 11:28:38;;;;;;;5.65;3.25;;;;;;;;;;4990684;28;20228;-75
2022/10/18 11:31:31;;;;;;;6.13;3.42;;;;;;;;;;4978730;28;20304;-76
2022/10/18 11:34:30;;;;;;;4.43;2.85;;;;;;;;;;5011938;28;20275;-76
2022/10/18 11:37:50;;;;;;;5.10;3.00;;;;;;;;;;4991513;28;20224;-74
2022/10/18 11:40:49;;;;;;;4.30;3.10;;;;;;;;;;4918465;29;20228;-74
2022/10/18 11:43:36;;;;;;;3.63;2.70;;;;;;;;;;4990037;28;20232;-77
2022/10/18 11:46:32;;;;;;;6.50;3.08;;;;;;;;;;5001283;28;20252;-77
2022/10/18 11:49:20;;;;;;;4.47;2.83;;;;;;;;;;4986547;28;20234;-77
2022/10/18 11:52:12;;;;;;;11.38;3.17;;;;;;;;;;4991857;28;20226;-77
2022/10/18 11:55:15;;;;;;;6.00;3.20;;;;;;;;;;4997754;28;20336;-76
2022/10/18 11:58:06;;;;;;;5.55;2.75;;;;;;;;;;4998847;28;20276;-76
2022/10/18 12:00:56;;;;;;;4.60;2.40;;;;;;;;;;5000668;28;20320;-76
2022/10/18 12:03:37;;;;;;;4.55;2.40;;;;;;;;;;4973557;28;20217;-78
2022/10/18 12:06:06;;;;;;;4.15;2.40;;;;;;;;;;4977489;28;20222;-75
2022/10/18 12:08:48;;;;;;;5.25;3.00;;;;;;;;;;4964033;28;20241;-77
2022/10/18 12:11:18;;;;;;;6.75;2.80;;;;;;;;;;4962014;28;20213;-75
2022/10/18 12:13:46;;;;;;;5.28;2.85;;;;;;;;;;4978589;28;20239;-73
2022/10/18 12:16:14;;;;;;;5.40;2.70;;;;;;;;;;5006981;28;20221;-76
2022/10/18 12:18:46;;;;;;;4.90;2.20;;;;;;;;;;4987309;28;20249;-76
2022/10/18 12:21:11;;;;;;;3.20;2.22;;;;;;;;;;4991501;28;20751;-75
2022/10/18 12:23:46;;;;;;;4.05;2.40;;;;;;;;;;4992064;28;20227;-74
2022/10/18 12:26:11;;;;;;;4.43;2.70;;;;;;;;;;4994048;28;20213;-74
2022/10/18 12:28:58;;;;;;;7.57;2.65;;;;;;;;;;4993536;28;20608;-75
2022/10/18 12:31:32;;;;;;;4.45;2.78;;;;;;;;;;4988780;28;20316;-75
2022/10/18 12:34:21;;;;;;;4.53;2.20;;;;;;;;;;5001655;28;20844;-75
2022/10/18 12:36:52;;;;;;;4.22;2.38;;;;;;;;;;4992515;28;20218;-73
2022/10/18 12:39:28;;;;;;;3.80;2.47;;;;;;;;;;4989512;28;20325;-75
2022/10/18 12:41:54;;;;;;;3.08;2.30;;;;;;;;;;4970416;28;20222;-75
2022/10/18 12:44:35;;;;;;;5.15;2.58;;;;;;;;;;4975880;28;20213;-75
2022/10/18 12:47:01;;;;;;;3.72;2.13;;;;;;;;;;4951804;28;20229;-75
2022/10/18 12:49:32;;;;;;;3.70;2.33;;;;;;;;;;4971173;28;20229;-75
2022/10/18 12:52:00;;;;;;;4.95;2.42;;;;;;;;;;4966012;28;20234;-75
2022/10/18 12:54:32;;;;;;;5.13;2.42;;;;;;;;;;4955903;28;20289;-74
2022/10/18 12:56:59;;;;;;;4.43;2.03;;;;;;;;;;4972928;28;20239;-74
2022/10/18 12:59:28;;;;;;;3.58;2.25;;;;;;;;;;4974532;28;20225;-74
2022/10/18 13:01:53;;;;;;;6.00;3.35;;;;;;;;;;5001686;28;20234;-74
2022/10/18 13:04:31;;;;;;;5.60;3.97;;;;;;;;;;5007087;28;20232;-75
2022/10/18 13:07:06;;;;;;;6.43;4.50;;;;;;;;;;5010471;28;20228;-75
2022/10/18 13:09:43;;;;;;;5.95;4.07;;;;;;;;;;4989416;28;20234;-75
2022/10/18 13:12:11;;;;;;;4.97;3.33;;;;;;;;;;4983777;28;20254;-75
2022/10/18 13:15:04;;;;;;;4.60;2.40;;;;;;;;;;4993448;28;20319;-75
2022/10/18 13:17:34;;;;;;;4.10;2.08;;;;;;;;;;4990256;28;20569;-74
2022/10/18 13:20:21;;;;;;;3.47;2.45;;;;;;;;;;4988262;28;20238;-75
2022/10/18 13:22:52;;;;;;;4.03;2.50;;;;;;;;;;5008900;28;20225;-76
2022/10/18 13:25:44;;;;;;;6.03;2.38;;;;;;;;;;4995957;28;20217;-75
2022/10/18 13:28:15;;;;;;;4.32;3.35;;;;;;;;;;4994903;28;20263;-78
2022/10/18 13:30:58;;;;;;;4.10;2.75;;;;;;;;;;4988104;28;20799;-76
2022/10/18 13:33:34;;;;;;;4.25;3.10;;;;;;;;;;5014338;28;20220;-77
2022/10/18 13:36:16;;;;;;;5.68;2.97;;;;;;;;;;4985240;28;20244;-76
2022/10/18 13:38:54;;;;;;;4.70;3.03;;;;;;;;;;4993769;28;20255;-78
2022/10/18 13:41:21;;;;;;;5.80;2.42;;;;;;;;;;5003763;28;20217;-77
2022/10/18 13:43:52;;;;;;;4.15;2.53;;;;;;;;;;4986918;28;20333;-79
2022/10/18 13:46:33;;;;;;;2.95;2.30;;;;;;;;;;4989792;28;20265;-74
2022/10/18 13:49:26;;;;;;;3.40;1.90;;;;;;;;;;4994865;28;20586;-76
2022/10/18 13:52:13;;;;;;;2.22;2.03;;;;;;;;;;4994384;28;20225;-75
2022/10/18 13:55:16;;;;;;;4.40;2.60;;;;;;;;;;4993213;28;20291;-74
2022/10/18 13:58:18;;;;;;;4.00;2.00;;;;;;;;;;4985445;28;20217;-78
2022/10/18 14:01:05;;;;;;;2.97;2.17;;;;;;;;;;5005776;28;20236;-77
2022/10/18 14:03:37;;;;;;;4.53;2.67;;;;;;;;;;4990714;28;20220;-77
2022/10/18 14:06:27;;;;;;;5.90;2.00;;;;;;;;;;5003595;28;20221;-78
2022/10/18 14:09:02;;;;;;;3.83;2.08;;;;;;;;;;4976676;28;20618;-76
2022/10/18 14:11:55;;;;;;;2.85;1.63;;;;;;;;;;4989090;28;20746;-77
2022/10/18 14:14:37;;;;;;;2.28;1.35;;;;;;;;;;5004090;28;20221;-76
2022/10/18 14:17:06;;;;;;;4.35;1.90;;;;;;;;;;5006130;28;20377;-76
2022/10/18 14:19:47;;;;;;;5.38;1.70;;;;;;;;;;4978278;28;20724;-75
2022/10/18 14:22:30;;;;;;;3.40;1.50;;;;;;;;;;4970512;28;20225;-76
2022/10/18 14:24:56;;;;;;;1.88;1.20;;;;;;;;;;4988346;28;20394;-76
2022/10/18 14:27:22;;;;;;;4.28;1.45;;;;;;;;;;4999499;28;20598;-76
2022/10/18 14:29:49;;;;;;;3.05;1.38;;;;;;;;;;4975673;28;20225;-76
2022/10/18 14:32:29;;;;;;;3.20;1.50;;;;;;;;;;4965236;28;20259;-76
2022/10/18 14:34:57;;;;;;;3.03;1.30;;;;;;;;;;4964046;28;20312;-75
2022/10/18 14:37:35;;;;;;;4.05;1.70;;;;;;;;;;4979655;28;20235;-76
2022/10/18 14:40:03;;;;;;;5.32;1.75;;;;;;;;;;4990045;28;20791;-75
2022/10/18 14:42:31;;;;;;;4.47;1.50;;;;;;;;;;4960857;28;20228;-75
2022/10/18 14:44:59;;;;;;;1.90;1.20;;;;;;;;;;5011455;28;20266;-74
2022/10/18 14:47:25;;;;;;;4.50;1.52;;;;;;;;;;4985685;28;20221;-75
2022/10/18 14:49:56;;;;;;;3.08;1.17;;;;;;;;;;4997309;28;20319;-76
2022/10/18 14:52:30;;;;;;;3.97;1.35;;;;;;;;;;4975955;28;20217;-76